Time;durP1;ratioP1;P1;durP2;ratioP2;P2;SDS_P1;SDS_P2;PMS_P1;PMS_P2;Temp;Humidity;BMP_temperature;BMP_pressure;BME280_temperature;BME280_humidity;BME280_pressure;Samples;Min_cycle;Max_cycle;Signal;HPM_P1;HPM_P2
2022/04/22 00:01:12;;;;;;;9.10;5.35;;;11.10;98.30;;;;;;5008088;28;20034;-90
2022/04/22 00:03:38;;;;;;;8.95;5.50;;;11.10;98.60;;;;;;5015677;28;20421;-89
2022/04/22 00:06:05;;;;;;;10.48;4.70;;;11.00;98.70;;;;;;5009409;28;20046;-89
2022/04/22 00:08:31;;;;;;;9.02;4.95;;;11.00;99.20;;;;;;5008489;28;20080;-89
2022/04/22 00:13:42;;;;;;;11.73;6.75;;;10.90;99.80;;;;;;5019060;28;20042;-90
2022/04/22 00:16:08;;;;;;;8.85;5.45;;;10.90;99.90;;;;;;5010547;28;20508;-90
2022/04/22 00:18:34;;;;;;;13.07;6.68;;;10.80;99.90;;;;;;5017045;28;20033;-90
2022/04/22 00:21:01;;;;;;;10.80;6.70;;;10.80;99.90;;;;;;5011949;28;20022;-91
2022/04/22 00:23:27;;;;;;;9.50;6.18;;;10.80;99.90;;;;;;5015067;28;20509;-90
2022/04/22 00:25:54;;;;;;;13.52;6.03;;;10.80;99.90;;;;;;5009796;28;20478;-90
2022/04/22 00:28:20;;;;;;;9.93;5.88;;;10.80;99.90;;;;;;5024248;28;20123;-90
2022/04/22 00:30:47;;;;;;;10.75;6.43;;;10.80;99.90;;;;;;5017816;28;20075;-89
2022/04/22 00:33:13;;;;;;;10.93;6.28;;;10.70;99.90;;;;;;4997892;28;20026;-90
2022/04/22 00:35:40;;;;;;;10.13;7.00;;;10.70;99.90;;;;;;5004577;28;20094;-90
2022/04/22 00:38:06;;;;;;;11.35;5.75;;;10.70;99.90;;;;;;5008264;28;20018;-89
2022/04/22 00:40:31;;;;;;;11.95;6.60;;;10.60;99.90;;;;;;5017957;28;20033;-91
2022/04/22 00:42:57;;;;;;;12.25;7.30;;;10.60;99.90;;;;;;5017040;28;20021;-90
2022/04/22 00:45:22;;;;;;;12.43;7.53;;;10.60;99.90;;;;;;5014798;28;20025;-90
2022/04/22 00:47:48;;;;;;;9.93;7.03;;;10.60;99.90;;;;;;5007128;28;20026;-90
2022/04/22 00:50:14;;;;;;;9.25;6.38;;;10.50;99.90;;;;;;5006817;28;20406;-91
2022/04/22 00:52:39;;;;;;;11.52;7.22;;;10.50;99.90;;;;;;5015956;28;20112;-90
2022/04/22 00:55:06;;;;;;;11.40;6.35;;;10.50;99.90;;;;;;5010569;28;20052;-89
2022/04/22 00:57:33;;;;;;;11.50;7.10;;;10.50;99.90;;;;;;5030390;28;20496;-90
2022/04/22 00:59:59;;;;;;;12.07;7.18;;;10.40;99.90;;;;;;5005314;28;20369;-91
2022/04/22 01:02:24;;;;;;;13.20;8.32;;;10.40;99.90;;;;;;5029416;28;20029;-90
2022/04/22 01:10:19;;;;;;;12.30;7.28;;;10.20;99.90;;;;;;5029259;28;20386;-90
2022/04/22 01:12:44;;;;;;;13.35;8.13;;;10.20;99.90;;;;;;5001014;28;20117;-90
2022/04/22 01:15:10;;;;;;;11.88;7.60;;;10.20;99.90;;;;;;5011106;28;20050;-90
2022/04/22 01:17:36;;;;;;;12.60;7.32;;;10.10;99.90;;;;;;5009970;28;20029;-91
2022/04/22 01:20:04;;;;;;;14.45;7.82;;;10.10;99.90;;;;;;5008440;28;20049;-89
2022/04/22 01:22:30;;;;;;;11.88;7.78;;;10.10;99.90;;;;;;5008326;28;20022;-90
2022/04/22 01:25:01;;;;;;;11.98;7.55;;;10.00;99.90;;;;;;5003517;28;20125;-90
2022/04/22 01:27:30;;;;;;;11.18;7.47;;;10.00;99.90;;;;;;5017706;28;20025;-91
2022/04/22 01:29:57;;;;;;;14.15;8.00;;;10.00;99.90;;;;;;5013490;28;20026;-90
2022/04/22 01:32:24;;;;;;;11.30;7.43;;;10.00;99.90;;;;;;5011585;28;20025;-90
2022/04/22 01:34:50;;;;;;;13.02;7.95;;;9.90;99.90;;;;;;5015826;28;20029;-89
2022/04/22 01:37:16;;;;;;;12.20;7.88;;;9.90;99.90;;;;;;5001777;28;20033;-90
2022/04/22 01:39:41;;;;;;;12.70;7.47;;;9.80;99.90;;;;;;5012769;28;20045;-91
2022/04/22 01:42:07;;;;;;;11.63;7.38;;;9.80;99.90;;;;;;5015969;28;20080;-90
2022/04/22 01:44:35;;;;;;;14.85;8.45;;;9.80;99.90;;;;;;5014422;28;20103;-90
2022/04/22 01:47:02;;;;;;;13.73;8.10;;;9.80;99.90;;;;;;5009645;28;20029;-91
2022/04/22 01:49:27;;;;;;;11.73;8.05;;;9.70;99.90;;;;;;5004345;28;20124;-89
2022/04/22 01:51:54;;;;;;;14.77;8.32;;;9.60;99.90;;;;;;5013312;28;20497;-89
2022/04/22 01:54:20;;;;;;;10.68;7.45;;;9.70;99.90;;;;;;5014842;28;20049;-90
2022/04/22 01:56:46;;;;;;;15.70;9.13;;;9.60;99.90;;;;;;5015463;28;20033;-90
2022/04/22 01:59:11;;;;;;;13.80;8.32;;;9.60;99.90;;;;;;5015160;28;20072;-90
2022/04/22 02:01:37;;;;;;;14.75;9.27;;;9.60;99.90;;;;;;5014918;28;20059;-91
2022/04/22 02:04:03;;;;;;;12.60;8.02;;;9.50;99.90;;;;;;5005339;28;20090;-90
2022/04/22 02:06:28;;;;;;;13.10;8.63;;;9.50;99.90;;;;;;5016185;28;20033;-91
2022/04/22 02:08:54;;;;;;;14.23;8.35;;;9.50;99.90;;;;;;5012523;28;20060;-91
2022/04/22 02:11:20;;;;;;;15.57;8.60;;;9.40;99.90;;;;;;5016451;28;20073;-90
2022/04/22 02:13:46;;;;;;;12.43;8.68;;;9.40;99.90;;;;;;5017919;28;20057;-90
2022/04/22 02:16:12;;;;;;;13.50;8.45;;;9.40;99.90;;;;;;5021201;28;20068;-90
2022/04/22 02:18:41;;;;;;;13.63;9.25;;;9.30;99.90;;;;;;5020941;28;20031;-91
2022/04/22 02:21:08;;;;;;;12.38;9.20;;;9.30;99.90;;;;;;5045312;28;20367;-91
2022/04/22 02:23:34;;;;;;;12.35;9.05;;;9.30;99.90;;;;;;5018239;28;20030;-90
2022/04/22 02:26:00;;;;;;;14.18;9.52;;;9.30;99.90;;;;;;5008015;28;20036;-91
2022/04/22 02:28:35;;;;;;;18.60;9.05;;;9.20;99.90;;;;;;5022668;28;20021;-91
2022/04/22 02:31:09;;;;;;;14.85;9.18;;;9.20;99.90;;;;;;5004434;28;20470;-90
2022/04/22 02:33:36;;;;;;;12.25;8.93;;;9.20;99.90;;;;;;5017300;28;20385;-91
2022/04/22 02:36:03;;;;;;;13.75;8.75;;;9.10;99.90;;;;;;5014873;28;20430;-90
2022/04/22 02:38:30;;;;;;;14.55;9.07;;;9.00;99.90;;;;;;5015022;28;20026;-90
2022/04/22 02:46:25;;;;;;;13.23;8.32;;;8.90;99.90;;;;;;5022708;28;20036;-91
2022/04/22 02:48:51;;;;;;;13.52;7.80;;;8.90;99.90;;;;;;5023926;28;20033;-91
2022/04/22 02:51:17;;;;;;;14.45;9.38;;;8.80;99.90;;;;;;5022834;28;20026;-90
2022/04/22 02:53:43;;;;;;;12.00;8.27;;;8.80;99.90;;;;;;5020216;28;20544;-90
2022/04/22 02:56:10;;;;;;;14.57;8.40;;;8.80;99.90;;;;;;5011675;28;20021;-91
2022/04/22 02:58:36;;;;;;;13.27;8.57;;;8.70;99.90;;;;;;5023527;28;20026;-91
2022/04/22 03:01:03;;;;;;;14.38;8.57;;;8.70;99.90;;;;;;5022343;28;20095;-90
2022/04/22 03:03:29;;;;;;;14.93;9.05;;;8.70;99.90;;;;;;5020559;28;20112;-90
2022/04/22 03:05:54;;;;;;;15.48;8.23;;;8.80;99.90;;;;;;5014712;28;20088;-89
2022/04/22 03:08:20;;;;;;;18.33;9.20;;;8.80;99.90;;;;;;5010380;28;20132;-91
2022/04/22 03:10:48;;;;;;;16.55;8.70;;;8.90;99.90;;;;;;5015745;28;20028;-91
2022/04/22 03:13:14;;;;;;;12.45;7.68;;;8.90;99.90;;;;;;5010297;28;20025;-90
2022/04/22 03:15:41;;;;;;;13.15;8.07;;;8.90;99.90;;;;;;5004869;28;20021;-90
2022/04/22 03:18:07;;;;;;;12.75;7.35;;;8.90;99.90;;;;;;5019936;28;20026;-91
2022/04/22 03:20:32;;;;;;;13.93;8.05;;;8.90;99.90;;;;;;5015727;28;20022;-91
2022/04/22 03:22:58;;;;;;;14.65;7.95;;;8.90;99.90;;;;;;5018924;28;20025;-91
2022/04/22 03:25:23;;;;;;;11.57;8.48;;;9.00;99.90;;;;;;5008929;28;20034;-90
2022/04/22 03:27:51;;;;;;;13.43;7.97;;;9.00;99.90;;;;;;5021745;28;20060;-90
2022/04/22 03:30:17;;;;;;;18.13;8.23;;;9.00;99.90;;;;;;5003804;28;20482;-91
2022/04/22 03:32:43;;;;;;;13.63;8.43;;;9.00;99.90;;;;;;5012466;28;20022;-91
2022/04/22 03:35:09;;;;;;;15.02;8.30;;;9.00;99.90;;;;;;5014147;28;20052;-91
2022/04/22 03:37:34;;;;;;;14.35;8.95;;;9.00;99.90;;;;;;5032343;28;20025;-91
2022/04/22 03:40:01;;;;;;;12.73;8.55;;;8.90;99.90;;;;;;5018784;28;20125;-89
2022/04/22 03:42:28;;;;;;;14.07;8.63;;;8.90;99.90;;;;;;5017807;28;20021;-89
2022/04/22 03:44:56;;;;;;;13.75;8.93;;;8.80;99.90;;;;;;5020840;28;20037;-90
2022/04/22 03:47:22;;;;;;;11.30;6.90;;;8.90;99.90;;;;;;5022290;28;20026;-89
2022/04/22 03:49:48;;;;;;;15.05;8.27;;;8.90;99.90;;;;;;5020347;28;20496;-89
2022/04/22 03:52:14;;;;;;;14.52;8.45;;;8.90;99.90;;;;;;5010687;28;20025;-89
2022/04/22 03:54:40;;;;;;;16.90;9.82;;;8.90;99.90;;;;;;5036193;28;20028;-89
2022/04/22 03:59:49;;;;;;;15.18;10.40;;;8.90;99.90;;;;;;5028297;28;20393;-90
2022/04/22 04:02:15;;;;;;;14.75;9.73;;;9.00;99.90;;;;;;5022090;28;20029;-90
2022/04/22 04:04:40;;;;;;;18.23;10.48;;;9.00;99.90;;;;;;5016908;28;20045;-89
2022/04/22 04:07:06;;;;;;;21.02;11.23;;;8.90;99.90;;;;;;5004379;28;20022;-89
2022/04/22 04:17:44;;;;;;;15.85;10.07;;;8.90;99.90;;;;;;5019975;28;20421;-90
2022/04/22 04:25:40;;;;;;;15.57;10.98;;;8.90;99.90;;;;;;5032739;28;20115;-90
2022/04/22 04:28:09;;;;;;;17.13;10.85;;;8.90;99.90;;;;;;5018167;28;20030;-89
2022/04/22 04:30:36;;;;;;;18.35;11.45;;;8.90;99.90;;;;;;5002159;28;20049;-89
2022/04/22 04:33:02;;;;;;;17.67;10.88;;;8.90;99.90;;;;;;5010202;28;20440;-90
2022/04/22 04:35:28;;;;;;;18.83;12.05;;;8.90;99.90;;;;;;5009947;28;20026;-90
2022/04/22 04:37:53;;;;;;;17.15;11.13;;;8.90;99.90;;;;;;5017643;28;20390;-89
2022/04/22 04:40:18;;;;;;;19.92;11.43;;;8.90;99.90;;;;;;5015311;28;20021;-89
2022/04/22 04:42:44;;;;;;;15.18;9.70;;;8.90;99.90;;;;;;5015683;28;20029;-89
2022/04/22 04:45:10;;;;;;;21.98;12.63;;;8.80;99.90;;;;;;5017799;28;20042;-89
2022/04/22 04:47:42;;;;;;;18.45;12.77;;;8.80;99.90;;;;;;5004343;28;20024;-90
2022/04/22 04:50:09;;;;;;;17.17;11.15;;;8.80;99.90;;;;;;5005972;28;20228;-89
2022/04/22 04:52:37;;;;;;;20.15;12.90;;;8.80;99.90;;;;;;5007522;28;20036;-88
2022/04/22 04:55:07;;;;;;;18.98;12.68;;;8.90;99.90;;;;;;5018045;28;20021;-89
2022/04/22 04:57:33;;;;;;;18.20;12.40;;;8.80;99.90;;;;;;5017401;28;20068;-89
2022/04/22 04:59:59;;;;;;;21.00;13.52;;;8.90;99.90;;;;;;5012793;28;20061;-89
2022/04/22 05:02:25;;;;;;;16.08;12.07;;;8.90;99.90;;;;;;5005003;28;20036;-90
2022/04/22 05:04:50;;;;;;;21.05;14.00;;;8.80;99.90;;;;;;5011495;28;20049;-89
2022/04/22 05:07:16;;;;;;;26.20;14.40;;;8.90;99.90;;;;;;5015582;28;20029;-89
2022/04/22 05:09:41;;;;;;;22.35;13.75;;;8.90;99.90;;;;;;5010176;28;20035;-89
2022/04/22 05:12:09;;;;;;;22.13;14.00;;;8.90;99.90;;;;;;5017400;28;20016;-90
2022/04/22 05:14:35;;;;;;;21.35;13.98;;;8.90;99.90;;;;;;5016376;28;20486;-90
2022/04/22 05:17:01;;;;;;;19.92;12.90;;;8.90;99.90;;;;;;5014852;28;20083;-90
2022/04/22 05:19:27;;;;;;;20.77;13.32;;;9.00;99.90;;;;;;5010942;28;20029;-90
2022/04/22 05:21:52;;;;;;;19.75;12.25;;;9.00;99.90;;;;;;5016802;28;20037;-89
2022/04/22 05:24:18;;;;;;;22.20;13.85;;;9.00;99.90;;;;;;5015546;28;20041;-89
2022/04/22 05:26:43;;;;;;;20.13;13.20;;;9.10;99.90;;;;;;5012957;28;20024;-90
2022/04/22 05:32:36;;;;;;;21.23;14.35;;;9.10;99.90;;;;;;5001577;28;20502;-89
2022/04/22 05:34:38;;;;;;;18.30;13.65;;;9.20;99.90;;;;;;5029831;28;20052;-89
2022/04/22 05:37:04;;;;;;;24.08;15.07;;;9.20;99.90;;;;;;5008990;28;20482;-87
2022/04/22 05:39:29;;;;;;;21.50;14.82;;;9.30;99.90;;;;;;5014177;28;20032;-90
2022/04/22 05:41:55;;;;;;;21.63;15.57;;;9.30;99.90;;;;;;5011633;28;20494;-90
2022/04/22 05:44:20;;;;;;;19.13;13.70;;;9.30;99.90;;;;;;5011254;28;20045;-89
2022/04/22 05:46:46;;;;;;;25.33;14.75;;;9.40;99.90;;;;;;5014651;28;20406;-89
2022/04/22 05:49:12;;;;;;;21.13;14.60;;;9.40;99.90;;;;;;4998099;28;20490;-90
2022/04/22 05:51:37;;;;;;;23.65;14.52;;;9.60;99.90;;;;;;5017814;28;20020;-89
2022/04/22 05:54:03;;;;;;;24.92;15.55;;;9.60;99.90;;;;;;5023257;28;20029;-89
2022/04/22 05:56:29;;;;;;;22.75;14.40;;;9.70;99.90;;;;;;5030707;28;20030;-89
2022/04/22 05:58:55;;;;;;;21.45;15.35;;;9.80;99.90;;;;;;5016894;28;20028;-89
2022/04/22 06:01:22;;;;;;;21.98;13.95;;;9.90;99.90;;;;;;5010226;28;20026;-88
2022/04/22 06:03:48;;;;;;;20.42;13.77;;;10.00;99.90;;;;;;5006602;28;20064;-89
2022/04/22 06:06:13;;;;;;;18.83;13.57;;;10.00;99.90;;;;;;5014631;28;20041;-88
2022/04/22 06:11:23;;;;;;;22.77;15.23;;;10.20;99.90;;;;;;5016503;28;20112;-89
2022/04/22 06:13:48;;;;;;;19.65;14.80;;;10.30;99.90;;;;;;5020382;28;20144;-88
2022/04/22 06:16:14;;;;;;;18.65;13.15;;;10.30;99.90;;;;;;5006902;28;20026;-89
2022/04/22 06:18:39;;;;;;;23.65;14.63;;;10.40;99.90;;;;;;5013632;28;20032;-89
2022/04/22 06:21:05;;;;;;;18.25;14.10;;;10.50;99.90;;;;;;5014782;28;20068;-88
2022/04/22 06:23:30;;;;;;;21.13;14.95;;;10.60;99.90;;;;;;5009878;28;20038;-89
2022/04/22 06:25:56;;;;;;;19.00;14.20;;;10.50;99.90;;;;;;5009330;28;20021;-90
2022/04/22 06:28:22;;;;;;;18.25;12.95;;;10.50;99.90;;;;;;4997737;28;20029;-89
2022/04/22 06:30:48;;;;;;;18.75;13.85;;;10.60;99.90;;;;;;5003140;28;20022;-89
2022/04/22 06:33:16;;;;;;;18.67;13.73;;;10.60;99.90;;;;;;5000921;28;20025;-89
2022/04/22 06:35:41;;;;;;;17.67;14.10;;;10.70;99.90;;;;;;5004488;28;20631;-89
2022/04/22 06:38:08;;;;;;;20.95;14.45;;;10.80;99.90;;;;;;5009516;28;20037;-90
2022/04/22 06:46:03;;;;;;;18.35;14.88;;;10.90;99.90;;;;;;5038061;28;20048;-90
2022/04/22 06:48:30;;;;;;;18.58;14.10;;;11.10;99.90;;;;;;5015891;28;20030;-90
2022/04/22 06:50:57;;;;;;;22.10;15.07;;;11.20;99.90;;;;;;5003703;28;20494;-90
2022/04/22 06:53:24;;;;;;;17.23;13.50;;;11.20;99.90;;;;;;4996406;28;20478;-90
2022/04/22 06:55:50;;;;;;;19.88;15.38;;;11.20;99.90;;;;;;5007922;28;20563;-90
2022/04/22 06:58:18;;;;;;;18.05;14.35;;;11.20;99.90;;;;;;5008265;28;20508;-90
2022/04/22 07:00:45;;;;;;;19.23;14.68;;;11.10;99.90;;;;;;4997957;28;20030;-89
2022/04/22 07:03:13;;;;;;;20.48;14.40;;;11.00;99.90;;;;;;5007990;28;20030;-90
2022/04/22 07:05:40;;;;;;;18.23;13.20;;;11.10;99.90;;;;;;5011890;28;20490;-90
2022/04/22 07:08:08;;;;;;;18.48;13.48;;;11.10;99.90;;;;;;5017759;28;20026;-90
2022/04/22 07:10:35;;;;;;;20.15;14.80;;;11.30;99.90;;;;;;5025342;28;20021;-89
2022/04/22 07:13:02;;;;;;;21.77;15.75;;;11.30;99.90;;;;;;5002952;28;20030;-89
2022/04/22 07:15:28;;;;;;;18.92;14.07;;;11.40;99.90;;;;;;5004387;28;20405;-89
2022/04/22 07:17:54;;;;;;;21.33;15.52;;;11.50;99.90;;;;;;5006330;28;20655;-90
2022/04/22 07:20:21;;;;;;;17.70;13.77;;;11.60;99.90;;;;;;5015864;28;20029;-89
2022/04/22 07:22:47;;;;;;;21.10;14.70;;;11.80;99.90;;;;;;5007434;28;20035;-90
2022/04/22 07:25:14;;;;;;;18.85;13.73;;;11.90;99.90;;;;;;5015487;28;20044;-90
2022/04/22 07:27:42;;;;;;;17.05;13.52;;;12.10;99.90;;;;;;5002081;28;20018;-89
2022/04/22 07:30:09;;;;;;;19.15;13.88;;;12.20;99.90;;;;;;5023079;28;20053;-90
2022/04/22 07:32:39;;;;;;;18.52;13.75;;;12.20;99.90;;;;;;5014578;28;20026;-90
2022/04/22 07:35:08;;;;;;;17.38;13.57;;;12.30;99.90;;;;;;5012909;28;20026;-88
2022/04/22 07:37:35;;;;;;;18.80;14.30;;;12.30;99.90;;;;;;5016598;28;20053;-89
2022/04/22 07:40:01;;;;;;;20.05;15.38;;;12.40;99.90;;;;;;5016922;28;20128;-90
2022/04/22 07:42:29;;;;;;;17.67;14.10;;;12.30;99.90;;;;;;5019029;28;20083;-88
2022/04/22 07:47:43;;;;;;;18.13;13.63;;;12.30;99.90;;;;;;5036541;28;20041;-88
2022/04/22 07:50:10;;;;;;;17.60;13.93;;;12.40;99.90;;;;;;5010248;28;20029;-89
2022/04/22 07:52:36;;;;;;;18.73;13.85;;;12.40;99.90;;;;;;5018544;28;20389;-90
2022/04/22 07:55:03;;;;;;;20.40;15.10;;;12.50;99.90;;;;;;5017417;28;20120;-89
2022/04/22 07:57:29;;;;;;;16.63;13.35;;;12.60;99.90;;;;;;5018618;28;20022;-89
2022/04/22 07:59:54;;;;;;;24.40;16.10;;;12.60;99.90;;;;;;5008762;28;20033;-90
2022/04/22 08:02:21;;;;;;;18.42;13.70;;;12.70;99.90;;;;;;5028878;28;20446;-88
2022/04/22 08:04:46;;;;;;;20.98;14.18;;;12.90;99.90;;;;;;5017595;28;20175;-89
2022/04/22 08:07:12;;;;;;;18.58;13.57;;;13.00;99.90;;;;;;5018736;28;20489;-89
2022/04/22 08:09:38;;;;;;;18.02;14.02;;;13.10;99.90;;;;;;5015014;28;20037;-89
2022/04/22 08:12:04;;;;;;;19.27;14.52;;;13.10;99.90;;;;;;5014183;28;20025;-89
2022/04/22 08:14:32;;;;;;;21.08;15.40;;;13.10;99.90;;;;;;5014626;28;20109;-89
2022/04/22 08:16:59;;;;;;;19.98;14.40;;;13.00;99.90;;;;;;5014530;28;20068;-88
2022/04/22 08:19:24;;;;;;;18.45;14.13;;;12.90;99.90;;;;;;5018417;28;20512;-88
2022/04/22 08:21:50;;;;;;;18.95;14.02;;;13.00;99.90;;;;;;5014426;28;20022;-88
2022/04/22 08:24:15;;;;;;;15.77;12.98;;;13.10;99.90;;;;;;5012167;28;20037;-88
2022/04/22 08:26:41;;;;;;;17.85;13.27;;;13.20;99.90;;;;;;5013525;28;20402;-89
2022/04/22 08:29:07;;;;;;;20.88;13.27;;;13.40;99.90;;;;;;5011051;28;20029;-88
2022/04/22 08:31:32;;;;;;;17.65;13.43;;;13.40;99.90;;;;;;5008030;28;20164;-88
2022/04/22 08:33:58;;;;;;;16.35;12.82;;;13.40;99.90;;;;;;5013870;28;20398;-88
2022/04/22 08:36:27;;;;;;;17.13;12.80;;;13.40;99.90;;;;;;5011475;28;20030;-89
2022/04/22 08:38:53;;;;;;;16.10;10.90;;;13.50;99.90;;;;;;5017827;28;20041;-88
2022/04/22 08:41:21;;;;;;;15.18;12.23;;;13.70;99.90;;;;;;5019913;28;20029;-89
2022/04/22 08:43:47;;;;;;;16.70;12.50;;;13.80;99.90;;;;;;5014294;28;20033;-89
2022/04/22 08:51:44;;;;;;;16.50;11.93;;;13.70;99.90;;;;;;5034564;28;20101;-88
2022/04/22 08:54:12;;;;;;;16.42;11.25;;;13.80;99.90;;;;;;5013369;28;20022;-88
2022/04/22 08:56:39;;;;;;;15.70;12.10;;;13.70;99.90;;;;;;5029323;28;20076;-90
2022/04/22 08:59:05;;;;;;;14.68;11.38;;;13.70;99.90;;;;;;5026833;28;20026;-89
2022/04/22 09:01:31;;;;;;;17.50;11.65;;;13.70;99.90;;;;;;5024339;28;20482;-88
2022/04/22 09:03:57;;;;;;;14.25;11.45;;;13.80;99.90;;;;;;5018701;28;20037;-88
2022/04/22 09:06:25;;;;;;;14.98;11.18;;;13.90;99.90;;;;;;5012951;28;20030;-88
2022/04/22 09:08:51;;;;;;;13.70;10.13;;;13.90;99.90;;;;;;5006584;28;20034;-89
2022/04/22 09:11:17;;;;;;;14.43;10.25;;;13.90;99.90;;;;;;5023936;28;20053;-88
2022/04/22 09:13:43;;;;;;;12.73;8.80;;;14.10;99.90;;;;;;5013451;28;20079;-88
2022/04/22 09:16:18;;;;;;;13.50;10.07;;;14.20;99.90;;;;;;5018539;28;20036;-89
2022/04/22 09:18:45;;;;;;;14.40;10.50;;;14.30;99.90;;;;;;5017470;28;20033;-89
2022/04/22 09:21:15;;;;;;;14.52;10.02;;;14.40;99.90;;;;;;5015350;28;20025;-89
2022/04/22 09:23:40;;;;;;;20.23;12.02;;;14.50;99.90;;;;;;5005236;28;20038;-88
2022/04/22 09:26:24;;;;;;;16.70;9.15;;;14.60;99.90;;;;;;5017007;28;20030;-88
2022/04/22 09:29:04;;;;;;;14.77;10.73;;;14.80;99.90;;;;;;5013759;28;20022;-88
2022/04/22 09:31:30;;;;;;;13.73;10.02;;;14.80;99.90;;;;;;5008491;28;20175;-89
2022/04/22 09:33:56;;;;;;;17.85;10.23;;;14.80;99.80;;;;;;5008845;28;20116;-89
2022/04/22 09:45:00;;;;;;;10.95;8.80;;;14.90;99.30;;;;;;5014492;28;20417;-89
2022/04/22 09:47:28;;;;;;;14.05;8.75;;;15.00;99.10;;;;;;5027759;28;20021;-89
2022/04/22 09:49:54;;;;;;;13.52;9.45;;;15.10;98.60;;;;;;5015910;28;20025;-90
2022/04/22 09:52:30;;;;;;;12.80;9.02;;;15.20;98.60;;;;;;5015348;28;20021;-89
2022/04/22 09:55:15;;;;;;;12.40;8.73;;;15.40;97.80;;;;;;5015205;28;20485;-89
2022/04/22 09:57:53;;;;;;;13.02;8.93;;;15.40;97.70;;;;;;5004246;28;20547;-89
2022/04/22 10:00:22;;;;;;;14.85;9.27;;;15.50;97.40;;;;;;5017527;28;20034;-89
2022/04/22 10:02:52;;;;;;;11.50;8.30;;;15.60;96.60;;;;;;5012095;28;20474;-88
2022/04/22 10:05:31;;;;;;;12.32;8.50;;;15.60;96.90;;;;;;4999317;28;20192;-89
2022/04/22 10:07:59;;;;;;;11.00;7.40;;;15.60;96.30;;;;;;5009918;28;20025;-88
2022/04/22 10:10:31;;;;;;;11.77;7.93;;;15.60;96.30;;;;;;5000182;28;20085;-90
2022/04/22 10:12:59;;;;;;;12.82;8.63;;;15.50;96.10;;;;;;5016387;28;20039;-87
2022/04/22 10:15:30;;;;;;;12.43;8.18;;;15.50;96.00;;;;;;5016929;28;20876;-89
2022/04/22 10:17:57;;;;;;;10.25;7.90;;;15.50;96.20;;;;;;5015991;28;20434;-89
2022/04/22 10:20:24;;;;;;;13.63;8.30;;;15.50;96.00;;;;;;5016652;28;20393;-90
2022/04/22 10:22:50;;;;;;;11.02;7.90;;;15.40;94.90;;;;;;5004513;28;20057;-89
2022/04/22 10:25:16;;;;;;;12.32;7.57;;;15.40;94.80;;;;;;4996555;28;20073;-89
2022/04/22 10:27:43;;;;;;;10.75;6.93;;;15.30;94.40;;;;;;4996754;28;20030;-90
2022/04/22 10:30:12;;;;;;;9.77;6.95;;;15.40;94.90;;;;;;4996646;28;20460;-88
2022/04/22 10:32:40;;;;;;;11.73;7.55;;;15.60;95.10;;;;;;4996480;28;20021;-88
2022/04/22 10:35:07;;;;;;;10.68;6.82;;;15.80;94.00;;;;;;5012796;28;20018;-88
2022/04/22 10:37:34;;;;;;;9.65;6.57;;;15.90;92.90;;;;;;5009997;28;20131;-88
2022/04/22 10:40:03;;;;;;;8.98;6.25;;;16.00;92.70;;;;;;5015477;28;20021;-89
2022/04/22 10:42:36;;;;;;;11.13;6.72;;;16.00;92.20;;;;;;5015859;28;20029;-88
2022/04/22 10:47:53;;;;;;;9.75;5.55;;;15.90;91.80;;;;;;5033849;28;20232;-87
2022/04/22 10:50:33;;;;;;;9.55;5.78;;;15.80;92.10;;;;;;5015051;28;20057;-87
2022/04/22 10:53:03;;;;;;;7.95;5.38;;;15.90;91.70;;;;;;5004299;28;20173;-88
2022/04/22 10:55:33;;;;;;;9.20;5.78;;;15.80;91.50;;;;;;4996361;28;20026;-88
2022/04/22 10:58:20;;;;;;;9.70;5.68;;;15.90;91.80;;;;;;5002210;28;20029;-88
2022/04/22 11:00:51;;;;;;;6.95;5.57;;;16.00;92.00;;;;;;5015682;28;20167;-88
2022/04/22 11:03:19;;;;;;;7.78;5.28;;;16.10;91.40;;;;;;5015506;28;20026;-88
2022/04/22 11:05:47;;;;;;;11.50;6.05;;;16.00;91.40;;;;;;5015048;28;20053;-89
2022/04/22 11:08:28;;;;;;;8.45;5.20;;;16.10;91.10;;;;;;5015834;28;20026;-89
2022/04/22 11:10:54;;;;;;;10.27;5.53;;;16.10;91.00;;;;;;5015266;28;20022;-88
2022/04/22 11:13:38;;;;;;;9.07;5.97;;;16.20;91.20;;;;;;5004078;28;20025;-90
2022/04/22 11:16:16;;;;;;;9.15;5.63;;;16.10;91.40;;;;;;5002099;28;20029;-89
2022/04/22 11:19:05;;;;;;;11.02;6.30;;;16.10;91.70;;;;;;5012313;28;20095;-90
2022/04/22 11:21:30;;;;;;;8.95;5.40;;;16.20;91.70;;;;;;5019563;28;20029;-88
2022/04/22 11:23:56;;;;;;;10.82;6.22;;;16.40;91.60;;;;;;5006908;28;20038;-89
2022/04/22 11:26:23;;;;;;;6.95;5.40;;;16.40;91.10;;;;;;4999784;28;20501;-88
2022/04/22 11:28:49;;;;;;;7.70;5.57;;;16.40;91.00;;;;;;4999664;28;20037;-89
2022/04/22 11:31:15;;;;;;;7.90;5.60;;;16.40;91.10;;;;;;5008870;28;20064;-89
2022/04/22 11:33:47;;;;;;;10.88;5.40;;;16.40;91.00;;;;;;5017180;28;20044;-89
2022/04/22 11:36:13;;;;;;;9.88;4.75;;;16.50;91.20;;;;;;5004686;28;20029;-89
2022/04/22 11:38:47;;;;;;;7.57;4.80;;;16.50;90.90;;;;;;5018903;28;20079;-89
2022/04/22 11:41:13;;;;;;;8.25;4.70;;;16.50;91.00;;;;;;5019478;28;20079;-89
2022/04/22 11:43:39;;;;;;;10.43;5.57;;;16.40;90.80;;;;;;5016213;28;20120;-88
2022/04/22 11:46:04;;;;;;;6.57;4.80;;;16.50;90.40;;;;;;4999962;28;20117;-89
2022/04/22 11:48:30;;;;;;;8.85;5.80;;;16.50;90.10;;;;;;5022323;28;20018;-89
2022/04/22 11:50:58;;;;;;;8.05;5.10;;;16.60;90.00;;;;;;5019547;28;20026;-89
2022/04/22 11:53:32;;;;;;;7.00;4.78;;;16.60;88.20;;;;;;5034890;28;20389;-89
2022/04/22 11:56:00;;;;;;;5.90;4.75;;;16.70;87.70;;;;;;5034748;28;20029;-89
2022/04/22 11:58:27;;;;;;;8.18;4.93;;;16.70;87.10;;;;;;5017457;28;20017;-89
2022/04/22 12:06:23;;;;;;;9.50;4.55;;;16.80;87.00;;;;;;5036536;28;20168;-89
2022/04/22 12:09:00;;;;;;;9.02;4.53;;;16.90;87.30;;;;;;5018307;28;20037;-89
2022/04/22 12:11:26;;;;;;;7.20;4.30;;;17.10;85.80;;;;;;5018965;28;20109;-89
2022/04/22 12:13:53;;;;;;;7.88;5.13;;;17.20;85.90;;;;;;5018236;28;20029;-88
2022/04/22 12:16:24;;;;;;;7.97;4.15;;;17.40;85.90;;;;;;5026919;28;20026;-88
2022/04/22 12:18:50;;;;;;;5.47;4.25;;;17.50;84.70;;;;;;5034914;28;20030;-89
2022/04/22 12:21:17;;;;;;;7.55;3.88;;;17.40;82.60;;;;;;5034493;28;20025;-88
2022/04/22 12:23:45;;;;;;;7.78;4.70;;;17.30;82.10;;;;;;5017621;28;20025;-89
2022/04/22 12:26:24;;;;;;;6.38;4.28;;;17.10;81.70;;;;;;5017597;28;20026;-89
2022/04/22 12:29:09;;;;;;;9.55;4.75;;;17.10;82.50;;;;;;5018183;28;20092;-88
2022/04/22 12:31:38;;;;;;;7.68;4.57;;;17.20;81.70;;;;;;5020393;28;20078;-90
2022/04/22 12:34:06;;;;;;;7.68;4.43;;;17.10;80.80;;;;;;5024643;28;20030;-89
2022/04/22 12:36:37;;;;;;;5.32;3.85;;;17.10;80.90;;;;;;5018486;28;20036;-89
2022/04/22 12:39:08;;;;;;;6.30;3.55;;;17.10;80.20;;;;;;5017855;28;20034;-89
2022/04/22 12:41:45;;;;;;;6.65;3.45;;;17.10;79.40;;;;;;5031575;28;20029;-89
2022/04/22 12:44:14;;;;;;;5.75;3.80;;;17.20;80.10;;;;;;5008795;28;20131;-89
2022/04/22 12:52:24;;;;;;;5.63;4.00;;;17.10;77.60;;;;;;5034960;28;20060;-88
2022/04/22 12:54:50;;;;;;;5.63;3.78;;;17.00;78.60;;;;;;5033872;28;20038;-89
2022/04/22 12:57:22;;;;;;;4.93;4.28;;;17.20;79.30;;;;;;5031151;28;20067;-88
2022/04/22 12:59:55;;;;;;;8.00;4.38;;;17.30;78.70;;;;;;5017554;28;20033;-89
2022/04/22 13:02:35;;;;;;;7.25;4.00;;;17.40;77.80;;;;;;5022426;28;20032;-88
2022/04/22 13:05:06;;;;;;;10.38;3.88;;;17.50;77.40;;;;;;5014409;28;20081;-88
2022/04/22 13:07:40;;;;;;;7.05;3.72;;;17.70;78.70;;;;;;5017013;28;20485;-89
2022/04/22 13:10:07;;;;;;;6.80;3.78;;;17.90;76.70;;;;;;5015572;28;20021;-89
2022/04/22 13:12:38;;;;;;;11.13;4.00;;;17.80;76.10;;;;;;5021463;28;20495;-89
2022/04/22 13:15:05;;;;;;;8.73;3.58;;;17.70;76.30;;;;;;5003106;28;20026;-89
2022/04/22 13:17:30;;;;;;;8.18;4.05;;;17.60;76.50;;;;;;4997650;28;20022;-88
2022/04/22 13:19:56;;;;;;;8.63;3.70;;;17.70;76.70;;;;;;5015264;28;20129;-89
2022/04/22 13:22:21;;;;;;;7.35;3.42;;;17.70;75.70;;;;;;5033416;28;20022;-89
2022/04/22 13:24:47;;;;;;;5.95;3.53;;;17.70;75.50;;;;;;5017034;28;20156;-89
2022/04/22 13:27:13;;;;;;;6.85;3.90;;;17.60;75.20;;;;;;5017276;28;20025;-88
2022/04/22 13:29:40;;;;;;;8.77;3.90;;;17.60;75.00;;;;;;5026939;28;20030;-89
2022/04/22 13:32:06;;;;;;;5.78;3.67;;;17.40;74.80;;;;;;5017379;28;20018;-89
2022/04/22 13:34:32;;;;;;;7.95;4.78;;;17.40;75.50;;;;;;5029858;28;20026;-90
2022/04/22 13:36:57;;;;;;;8.57;4.10;;;17.50;75.90;;;;;;5013566;28;20032;-90
2022/04/22 13:39:23;;;;;;;6.95;3.65;;;17.70;76.00;;;;;;5016966;28;20064;-89
2022/04/22 13:41:49;;;;;;;5.70;3.45;;;17.90;74.80;;;;;;5024086;28;20140;-89
2022/04/22 13:52:21;;;;;;;6.75;3.97;;;18.00;74.10;;;;;;5015214;28;20037;-90
2022/04/22 13:52:28;;;;;;;4.25;3.55;;;18.80;72.90;;;;;;5016523;28;20041;-89
2022/04/22 13:54:54;;;;;;;5.65;3.35;;;18.80;71.30;;;;;;4996995;28;20033;-89
2022/04/22 13:57:19;;;;;;;3.95;2.85;;;18.60;71.00;;;;;;5004818;28;20033;-89